Time;durP1;ratioP1;P1;durP2;ratioP2;P2;SDS_P1;SDS_P2;PMS_P1;PMS_P2;Temp;Humidity;BMP_temperature;BMP_pressure;BME280_temperature;BME280_humidity;BME280_pressure;Samples;Min_cycle;Max_cycle;Signal;HPM_P1;HPM_P2
2023/05/24 00:01:06;;;;;;;10.05;6.20;;;;;;;18.44;60.20;99456.62;4288120;33;20190;-84
2023/05/24 00:03:33;;;;;;;13.05;6.10;;;;;;;18.32;60.19;99450.44;4288371;33;20113;-84
2023/05/24 00:06:02;;;;;;;7.70;5.68;;;;;;;18.46;60.19;99446.88;4276542;33;20121;-84
2023/05/24 00:08:28;;;;;;;8.70;4.97;;;;;;;18.54;60.19;99444.53;4276346;33;20542;-84
2023/05/24 00:10:54;;;;;;;8.30;6.22;;;;;;;18.32;60.19;99445.16;4276181;33;20137;-84
2023/05/24 00:13:19;;;;;;;10.80;6.07;;;;;;;18.56;60.20;99445.25;4287599;33;31196;-84
2023/05/24 00:15:44;;;;;;;9.32;5.93;;;;;;;18.54;60.20;99440.09;4276216;33;21129;-85
2023/05/24 00:18:10;;;;;;;9.13;6.18;;;;;;;18.50;60.20;99438.63;4275908;33;22082;-84
2023/05/24 00:20:35;;;;;;;8.88;5.90;;;;;;;18.68;60.19;99439.16;4263355;33;34956;-85
2023/05/24 00:23:00;;;;;;;7.37;5.28;;;;;;;18.36;60.18;99436.09;4288202;33;20120;-84
2023/05/24 00:25:26;;;;;;;8.40;5.93;;;;;;;18.59;60.20;99427.44;4275538;33;36024;-84
2023/05/24 00:27:51;;;;;;;7.35;5.10;;;;;;;18.74;60.21;99432.62;4275963;33;20381;-85
2023/05/24 00:30:17;;;;;;;9.05;5.15;;;;;;;18.61;60.21;99430.81;4275245;33;32582;-84
2023/05/24 00:32:42;;;;;;;7.10;4.95;;;;;;;18.45;60.19;99426.69;4287681;33;29738;-84
2023/05/24 00:35:07;;;;;;;8.45;5.10;;;;;;;18.54;60.19;99431.34;4287861;33;20487;-84
2023/05/24 00:37:33;;;;;;;9.60;5.57;;;;;;;18.40;60.19;99421.75;4264055;33;20197;-84
2023/05/24 00:39:58;;;;;;;12.70;5.40;;;;;;;18.35;60.18;99429.13;4287870;33;20475;-83
2023/05/24 00:42:24;;;;;;;9.40;5.43;;;;;;;18.42;60.19;99420.69;4275885;33;20159;-84
2023/05/24 00:44:49;;;;;;;8.07;5.55;;;;;;;18.43;60.19;99418.91;4275749;33;20160;-84
2023/05/24 00:47:15;;;;;;;8.98;5.80;;;;;;;18.67;60.20;99419.84;4275562;33;20132;-84
2023/05/24 00:49:40;;;;;;;8.27;4.97;;;;;;;18.45;60.19;99421.44;4276365;33;20372;-82
2023/05/24 00:52:07;;;;;;;7.95;5.53;;;;;;;18.25;60.19;99425.47;4289211;33;20138;-84
2023/05/24 00:54:33;;;;;;;10.45;4.95;;;;;;;18.17;60.18;99427.75;4277927;33;20112;-83
2023/05/24 00:56:58;;;;;;;8.98;5.22;;;;;;;18.26;60.18;99433.25;4277680;33;20089;-84
2023/05/24 00:59:24;;;;;;;8.57;6.28;;;;;;;18.32;60.18;99434.63;4264946;33;38681;-83
2023/05/24 01:01:50;;;;;;;10.20;6.97;;;;;;;18.36;60.18;99430.81;4277143;33;26961;-84
2023/05/24 01:04:16;;;;;;;9.45;6.60;;;;;;;18.37;60.18;99436.00;4277638;33;20112;-84
2023/05/24 01:06:56;;;;;;;11.20;6.75;;;;;;;18.27;60.18;99440.22;4277733;33;20140;-84
2023/05/24 01:09:27;;;;;;;;;;;;;;;18.35;60.18;99443.16;4277994;33;20135;-84
2023/05/24 01:12:15;;;;;;;11.07;7.68;;;;;;;18.42;60.19;99431.25;4289792;33;19996;-84
2023/05/24 01:15:09;;;;;;;14.45;7.72;;;;;;;18.18;60.18;99432.09;4289299;33;20164;-83
2023/05/24 01:18:04;;;;;;;12.37;8.90;;;;;;;18.14;60.17;99428.81;4277317;33;20096;-84
2023/05/24 01:20:31;;;;;;;13.52;8.48;;;;;;;18.31;60.19;99433.78;4289681;33;20391;-84
2023/05/24 01:23:03;;;;;;;14.05;8.82;;;;;;;18.33;60.19;99431.03;4289613;33;20184;-84
2023/05/24 01:25:50;;;;;;;14.10;9.20;;;;;;;18.25;60.18;99430.75;4289421;33;20469;-84
2023/05/24 01:28:16;;;;;;;17.95;9.38;;;;;;;18.03;60.17;99424.28;4290750;33;20096;-84
2023/05/24 01:30:42;;;;;;;13.52;8.85;;;;;;;17.97;60.16;99418.56;4289579;33;20084;-84
2023/05/24 01:33:07;;;;;;;14.25;9.77;;;;;;;18.17;60.18;99425.97;4277107;33;20172;-84
2023/05/24 01:35:39;;;;;;;14.52;9.57;;;;;;;18.34;60.18;99416.91;4277512;33;20156;-84
2023/05/24 01:38:08;;;;;;;15.75;9.60;;;;;;;18.42;60.19;99419.84;4289520;33;20088;-83
2023/05/24 01:40:33;;;;;;;16.43;9.20;;;;;;;18.30;60.18;99418.94;4277514;33;20081;-85
2023/05/24 01:43:03;;;;;;;19.83;10.20;;;;;;;18.27;60.18;99419.13;4277587;33;20201;-84
2023/05/24 01:45:50;;;;;;;14.63;9.50;;;;;;;18.02;60.17;99409.44;4289335;33;20109;-85
2023/05/24 01:48:22;;;;;;;14.25;9.90;;;;;;;18.19;60.18;99412.69;4289565;33;20097;-84
2023/05/24 01:50:51;;;;;;;15.35;9.27;;;;;;;18.20;60.17;99409.94;4277456;33;20428;-85
2023/05/24 01:53:17;;;;;;;14.35;9.60;;;;;;;18.37;60.18;99416.69;4277319;33;20451;-84
2023/05/24 01:55:43;;;;;;;14.48;9.45;;;;;;;18.14;60.17;99410.38;4277305;33;20172;-84
2023/05/24 01:58:08;;;;;;;16.90;10.68;;;;;;;18.21;60.17;99403.72;4276393;33;36111;-84
2023/05/24 02:00:33;;;;;;;21.80;10.45;;;;;;;18.23;60.18;99408.94;4289133;33;20122;-84
2023/05/24 02:02:59;;;;;;;17.23;10.02;;;;;;;18.19;60.18;99407.44;4288868;33;23053;-84
2023/05/24 02:05:24;;;;;;;15.88;10.68;;;;;;;18.03;60.17;99412.91;4289205;33;20104;-85
2023/05/24 02:07:50;;;;;;;15.95;11.07;;;;;;;18.16;60.18;99412.91;4289290;33;20137;-84
2023/05/24 02:10:15;;;;;;;18.25;10.68;;;;;;;18.18;60.18;99411.84;4289195;33;20186;-85
2023/05/24 02:12:41;;;;;;;17.37;10.70;;;;;;;18.28;60.18;99414.72;4289138;33;20478;-85
2023/05/24 02:15:07;;;;;;;19.48;11.35;;;;;;;18.12;60.17;99416.69;4289126;33;20132;-85
2023/05/24 02:17:32;;;;;;;21.77;11.82;;;;;;;18.31;60.19;99409.22;4277052;33;20394;-84
2023/05/24 02:19:58;;;;;;;18.98;11.80;;;;;;;18.13;60.17;99418.38;4289276;33;20089;-84
2023/05/24 02:22:24;;;;;;;19.25;11.43;;;;;;;18.14;60.17;99413.00;4277173;33;20116;-85
2023/05/24 02:24:50;;;;;;;17.92;11.32;;;;;;;18.26;60.18;99416.63;4289058;33;20168;-84
2023/05/24 02:27:15;;;;;;;19.02;10.23;;;;;;;18.40;60.18;99413.84;4288277;33;38008;-84
2023/05/24 02:29:41;;;;;;;13.00;9.95;;;;;;;18.29;60.18;99403.22;4288872;33;20087;-84
2023/05/24 02:32:06;;;;;;;15.52;10.73;;;;;;;18.17;60.17;99411.97;4276520;33;31745;-84
2023/05/24 02:34:31;;;;;;;15.48;9.90;;;;;;;17.96;60.16;99401.94;4289171;33;20101;-84
2023/05/24 02:36:57;;;;;;;18.90;10.50;;;;;;;18.03;60.17;99410.28;4288240;33;35940;-85
2023/05/24 02:39:23;;;;;;;15.73;10.30;;;;;;;18.14;60.17;99399.84;4290332;33;20081;-84
2023/05/24 02:41:48;;;;;;;17.30;9.73;;;;;;;18.02;60.17;99405.97;4288638;33;20127;-84
2023/05/24 02:44:13;;;;;;;15.77;9.82;;;;;;;17.90;60.16;99397.09;4288650;33;20100;-84
2023/05/24 02:46:39;;;;;;;16.77;10.40;;;;;;;17.81;60.15;99395.09;4277046;33;20089;-85
2023/05/24 02:49:04;;;;;;;17.25;9.88;;;;;;;17.63;60.14;99393.66;4288737;33;20077;-84
2023/05/24 02:51:31;;;;;;;16.62;10.55;;;;;;;17.76;60.14;99389.28;4264989;33;20191;-84
2023/05/24 02:53:57;;;;;;;16.67;10.57;;;;;;;17.91;60.15;99388.25;4288874;33;20466;-85
2023/05/24 02:56:22;;;;;;;20.67;11.00;;;;;;;17.89;60.16;99386.66;4288725;33;20156;-85
2023/05/24 02:58:48;;;;;;;16.30;10.15;;;;;;;17.98;60.16;99386.91;4288365;33;23324;-84
2023/05/24 03:01:14;;;;;;;16.17;10.68;;;;;;;17.98;60.16;99397.44;4288831;33;20108;-84
2023/05/24 03:03:39;;;;;;;19.25;11.80;;;;;;;17.96;60.16;99396.66;4288772;33;20148;-84
2023/05/24 03:06:06;;;;;;;21.48;12.57;;;;;;;17.90;60.16;99397.09;4288105;33;20112;-84
2023/05/24 03:08:36;;;;;;;15.95;10.35;;;;;;;17.96;60.16;99393.19;4288831;33;20107;-84
2023/05/24 03:11:01;;;;;;;15.15;10.13;;;;;;;17.92;60.15;99394.34;4288763;33;20100;-84
2023/05/24 03:13:27;;;;;;;16.83;10.50;;;;;;;17.91;60.16;99403.19;4288584;33;20130;-84
2023/05/24 03:15:52;;;;;;;15.27;10.43;;;;;;;17.90;60.15;99410.25;4288130;33;26702;-83
2023/05/24 03:18:18;;;;;;;18.58;10.80;;;;;;;17.91;60.16;99406.69;4287790;33;35620;-84
2023/05/24 03:20:43;;;;;;;16.58;10.25;;;;;;;17.89;60.16;99413.00;4288081;33;28148;-83
2023/05/24 03:23:08;;;;;;;18.17;10.85;;;;;;;17.96;60.16;99406.34;4289760;33;20118;-84
2023/05/24 03:25:34;;;;;;;15.70;10.20;;;;;;;17.90;60.15;99407.63;4288528;33;20137;-84
2023/05/24 03:28:01;;;;;;;21.12;10.18;;;;;;;17.79;60.15;99403.09;4288420;33;20121;-83
2023/05/24 03:30:26;;;;;;;15.25;9.70;;;;;;;17.91;60.15;99403.19;4288526;33;20104;-83
2023/05/24 03:32:52;;;;;;;14.52;9.93;;;;;;;18.02;60.16;99404.19;4276587;33;20386;-84
2023/05/24 03:35:17;;;;;;;14.73;9.93;;;;;;;18.10;60.17;99409.75;4275649;33;36146;-84
2023/05/24 03:37:43;;;;;;;18.48;10.38;;;;;;;18.09;60.17;99408.06;4275744;33;32235;-84
2023/05/24 03:40:08;;;;;;;18.35;11.48;;;;;;;17.95;60.16;99409.94;4287905;33;21231;-84
2023/05/24 03:42:34;;;;;;;17.35;11.55;;;;;;;18.01;60.16;99417.44;4288330;33;20153;-84
2023/05/24 03:44:59;;;;;;;16.08;11.02;;;;;;;17.88;60.16;99413.94;4288085;33;20153;-84
2023/05/24 03:47:25;;;;;;;16.85;11.35;;;;;;;17.87;60.16;99412.25;4288299;33;20117;-84
2023/05/24 03:49:50;;;;;;;18.42;12.37;;;;;;;17.97;60.16;99422.06;4287375;33;29557;-84
2023/05/24 03:52:15;;;;;;;20.35;11.75;;;;;;;18.09;60.17;99418.59;4288281;33;20149;-84
2023/05/24 03:54:41;;;;;;;21.98;13.32;;;;;;;18.03;60.16;99424.28;4288180;33;20136;-83
2023/05/24 03:57:06;;;;;;;23.27;12.85;;;;;;;18.27;60.17;99424.41;4288112;33;20139;-83
2023/05/24 03:59:32;;;;;;;18.17;12.15;;;;;;;18.41;60.18;99423.44;4288002;33;20454;-83
2023/05/24 04:01:57;;;;;;;18.05;12.88;;;;;;;18.27;60.17;99431.47;4289211;33;20391;-83
2023/05/24 04:04:23;;;;;;;19.10;12.65;;;;;;;18.42;60.18;99425.12;4287201;33;35802;-83
2023/05/24 04:06:48;;;;;;;22.02;12.90;;;;;;;18.60;60.19;99429.13;4287128;33;23386;-84
2023/05/24 04:09:14;;;;;;;17.45;11.50;;;;;;;18.70;60.20;99434.63;4287788;33;20140;-83
2023/05/24 04:11:39;;;;;;;17.10;11.73;;;;;;;18.72;60.20;99431.91;4287666;33;20525;-85
2023/05/24 04:14:05;;;;;;;19.70;10.93;;;;;;;18.67;60.19;99425.12;4287809;33;20117;-84
2023/05/24 04:16:32;;;;;;;17.80;10.55;;;;;;;18.73;60.20;99430.94;4287374;33;20107;-84
2023/05/24 04:18:59;;;;;;;19.67;11.40;;;;;;;18.77;60.21;99435.88;4288859;33;20092;-84
2023/05/24 04:21:25;;;;;;;15.00;10.63;;;;;;;18.74;60.20;99440.53;4290074;33;20127;-84
2023/05/24 04:23:50;;;;;;;19.70;11.25;;;;;;;18.66;60.19;99444.53;4289790;33;20141;-84
2023/05/24 04:26:16;;;;;;;17.98;11.35;;;;;;;18.67;60.19;99443.56;4289267;33;31690;-84
2023/05/24 04:28:41;;;;;;;18.52;11.40;;;;;;;18.65;60.19;99444.63;4289910;33;20149;-84
2023/05/24 04:31:08;;;;;;;22.35;13.00;;;;;;;18.76;60.20;99446.53;4289312;33;23639;-85
2023/05/24 04:33:38;;;;;;;21.90;13.10;;;;;;;18.69;60.20;99446.97;4289867;33;20136;-84
2023/05/24 04:36:03;;;;;;;22.62;12.65;;;;;;;18.87;60.21;99455.38;4289858;33;20431;-85
2023/05/24 04:38:31;;;;;;;17.55;12.02;;;;;;;18.80;60.20;99462.03;4289713;33;20135;-84
2023/05/24 04:40:59;;;;;;;21.92;13.27;;;;;;;18.95;60.22;99449.56;4289749;33;20131;-84
2023/05/24 04:43:27;;;;;;;17.95;12.57;;;;;;;18.89;60.21;99447.34;4289556;33;20458;-84
2023/05/24 04:45:53;;;;;;;18.83;11.88;;;;;;;19.00;60.20;99455.34;4289799;33;20119;-84
2023/05/24 04:48:23;;;;;;;20.15;12.23;;;;;;;19.05;60.21;99449.75;4289761;33;20104;-83
2023/05/24 04:50:54;;;;;;;17.90;11.35;;;;;;;19.23;60.22;99453.69;4289639;33;20096;-83
2023/05/24 04:53:20;;;;;;;19.10;12.00;;;;;;;19.27;60.23;99447.25;4289690;33;20171;-84
2023/05/24 04:55:46;;;;;;;18.77;12.48;;;;;;;19.13;60.21;99464.06;4289474;33;20101;-84
2023/05/24 04:58:11;;;;;;;18.83;12.75;;;;;;;19.11;60.22;99460.69;4289647;33;20470;-83
2023/05/24 05:00:37;;;;;;;19.42;12.68;;;;;;;19.22;60.22;99457.28;4289788;33;20161;-82
2023/05/24 05:03:02;;;;;;;23.95;13.18;;;;;;;19.44;60.23;99459.22;4289684;33;20089;-83
2023/05/24 05:05:28;;;;;;;18.92;11.60;;;;;;;19.45;60.23;99448.56;4289368;33;20080;-83
2023/05/24 05:07:53;;;;;;;16.27;11.25;;;;;;;19.51;60.23;99455.16;4289968;33;36293;-84
2023/05/24 05:10:18;;;;;;;16.12;12.27;;;;;;;19.31;60.22;99456.62;4288936;33;25699;-83
2023/05/24 05:12:44;;;;;;;20.70;11.80;;;;;;;19.21;60.22;99469.66;4289149;33;21547;-83
2023/05/24 05:15:09;;;;;;;23.25;13.30;;;;;;;19.06;60.21;99469.91;4289229;33;21441;-83
2023/05/24 05:17:35;;;;;;;17.17;12.02;;;;;;;19.06;60.22;99467.25;4289468;33;20109;-84
2023/05/24 05:20:01;;;;;;;18.08;11.80;;;;;;;19.27;60.23;99466.56;4289559;33;20120;-83
2023/05/24 05:22:26;;;;;;;16.98;12.15;;;;;;;19.27;60.23;99466.56;4289731;33;20111;-83
2023/05/24 05:24:52;;;;;;;15.02;11.38;;;;;;;19.11;60.22;99468.59;4289272;33;20112;-84
2023/05/24 05:27:17;;;;;;;15.15;10.60;;;;;;;19.45;60.23;99472.31;4289188;33;20117;-83
2023/05/24 05:29:43;;;;;;;16.73;11.32;;;;;;;19.62;60.25;99469.28;4289130;33;20393;-83
2023/05/24 05:32:08;;;;;;;13.43;10.63;;;;;;;19.76;60.25;99463.00;4288980;33;23176;-83
2023/05/24 05:34:33;;;;;;;19.60;12.07;;;;;;;19.95;60.26;99467.75;4289316;33;20084;-82
2023/05/24 05:36:59;;;;;;;17.48;10.93;;;;;;;19.71;60.25;99459.84;4288469;33;36888;-85
2023/05/24 05:39:24;;;;;;;16.80;10.90;;;;;;;19.73;60.25;99468.50;4288827;33;25213;-84
2023/05/24 05:41:50;;;;;;;16.98;10.52;;;;;;;19.41;60.24;99470.00;4289446;33;20129;-83
2023/05/24 05:44:15;;;;;;;16.02;11.10;;;;;;;19.61;60.25;99472.88;4289299;33;20123;-83
2023/05/24 05:46:42;;;;;;;15.13;10.77;;;;;;;19.94;60.27;99471.34;4289411;33;20146;-83
2023/05/24 05:49:08;;;;;;;14.95;10.55;;;;;;;19.88;60.26;99483.22;4289286;33;20159;-83
2023/05/24 05:51:33;;;;;;;14.48;10.75;;;;;;;19.81;60.26;99479.34;4289202;33;20454;-83
2023/05/24 05:53:59;;;;;;;17.65;11.07;;;;;;;19.82;60.25;99488.09;4288756;33;23859;-83
2023/05/24 05:56:26;;;;;;;18.15;11.18;;;;;;;19.78;60.26;99487.50;4289134;33;20101;-83
2023/05/24 05:58:51;;;;;;;15.70;10.68;;;;;;;20.07;60.26;99489.75;4289022;33;20130;-83
2023/05/24 06:01:16;;;;;;;13.88;10.63;;;;;;;20.30;60.28;99488.00;4288906;33;20124;-83
2023/05/24 06:03:42;;;;;;;17.42;9.93;;;;;;;20.20;60.27;99485.22;4289115;33;20296;-83
2023/05/24 06:06:07;;;;;;;14.90;10.45;;;;;;;20.35;60.28;99493.81;4265123;33;20131;-82
2023/05/24 06:08:33;;;;;;;18.62;10.77;;;;;;;20.44;60.28;99487.84;4289141;33;20230;-83
2023/05/24 06:11:00;;;;;;;14.82;9.63;;;;;;;20.46;60.28;99496.50;4289962;33;20080;-83
2023/05/24 06:13:27;;;;;;;16.87;9.57;;;;;;;20.64;60.30;99492.44;4289332;33;20161;-83
2023/05/24 06:15:52;;;;;;;12.60;9.38;;;;;;;20.63;60.29;99496.03;4288816;33;20458;-83
2023/05/24 06:18:18;;;;;;;16.35;9.68;;;;;;;20.85;60.31;99492.56;4290244;33;20156;-83
2023/05/24 06:20:43;;;;;;;11.65;8.73;;;;;;;20.89;60.31;99490.53;4276916;33;22164;-83
2023/05/24 06:23:09;;;;;;;12.88;9.43;;;;;;;20.85;60.30;99503.16;4277135;33;20105;-83
2023/05/24 06:25:34;;;;;;;17.20;9.30;;;;;;;21.02;60.32;99497.34;4289109;33;20097;-83
2023/05/24 06:27:59;;;;;;;11.85;9.02;;;;;;;21.08;60.32;99496.03;4289233;33;20109;-83
2023/05/24 06:30:25;;;;;;;15.50;8.95;;;;;;;21.04;60.32;99506.00;4276991;33;20080;-83
2023/05/24 06:32:50;;;;;;;13.55;9.57;;;;;;;20.98;60.31;99498.56;4289163;33;20140;-83
2023/05/24 06:35:16;;;;;;;12.93;8.98;;;;;;;21.08;60.31;99496.88;4289095;33;20129;-83
2023/05/24 06:37:42;;;;;;;14.40;9.35;;;;;;;21.19;60.33;99500.47;4276243;33;32726;-83
2023/05/24 06:40:08;;;;;;;12.40;8.43;;;;;;;21.32;60.33;99510.00;4288838;33;20131;-83
2023/05/24 06:42:35;;;;;;;16.30;9.32;;;;;;;21.27;60.33;99503.38;4288351;33;20092;-83
2023/05/24 06:45:00;;;;;;;12.13;9.38;;;;;;;21.38;60.33;99503.38;4276952;33;20124;-83
2023/05/24 06:47:25;;;;;;;10.73;8.13;;;;;;;21.58;60.35;99510.53;4276942;33;20156;-84
2023/05/24 06:49:51;;;;;;;11.80;8.90;;;;;;;21.53;60.33;99502.12;4288703;33;20155;-84
2023/05/24 06:52:16;;;;;;;12.05;8.82;;;;;;;21.50;60.34;99509.47;4276945;33;20119;-83
2023/05/24 06:54:42;;;;;;;12.02;9.05;;;;;;;21.57;60.35;99514.16;4288259;33;32074;-83
2023/05/24 06:57:08;;;;;;;13.13;8.98;;;;;;;21.38;60.34;99514.81;4277040;33;20560;-83
2023/05/24 06:59:33;;;;;;;12.60;8.80;;;;;;;21.64;60.34;99514.50;4288932;33;20084;-82
2023/05/24 07:01:58;;;;;;;14.10;9.07;;;;;;;21.64;60.36;99510.03;4288392;33;22067;-83
2023/05/24 07:04:24;;;;;;;13.52;8.68;;;;;;;21.51;60.35;99514.63;4288714;33;20184;-83
2023/05/24 07:06:50;;;;;;;12.57;9.18;;;;;;;21.44;60.34;99524.06;4288810;33;20149;-82
2023/05/24 07:09:16;;;;;;;12.80;8.88;;;;;;;21.24;60.32;99514.22;4276938;33;20115;-83
2023/05/24 07:11:42;;;;;;;11.98;7.72;;;;;;;21.31;60.33;99512.78;4288735;33;20119;-83
2023/05/24 07:14:07;;;;;;;14.07;9.18;;;;;;;21.43;60.34;99519.72;4288604;33;20144;-83
2023/05/24 07:16:32;;;;;;;13.20;8.85;;;;;;;21.58;60.35;99534.38;4287891;33;35572;-83
2023/05/24 07:18:58;;;;;;;10.38;8.38;;;;;;;21.43;60.34;99532.97;4276729;33;20137;-83
2023/05/24 07:21:23;;;;;;;12.13;8.75;;;;;;;21.35;60.34;99528.28;4276412;33;20140;-82
2023/05/24 07:23:50;;;;;;;11.95;8.80;;;;;;;21.21;60.32;99544.37;4289829;33;20474;-83
2023/05/24 07:26:15;;;;;;;11.73;8.45;;;;;;;21.18;60.33;99539.34;4288603;33;20146;-83
2023/05/24 07:28:41;;;;;;;11.90;8.70;;;;;;;21.35;60.34;99545.97;4276476;33;20128;-83
2023/05/24 07:31:08;;;;;;;14.63;8.68;;;;;;;21.41;60.34;99546.31;4276614;33;20136;-83
2023/05/24 07:33:35;;;;;;;12.20;8.23;;;;;;;21.38;60.34;99557.16;4276530;33;20151;-82
2023/05/24 07:36:01;;;;;;;13.20;8.90;;;;;;;21.55;60.34;99552.34;4276308;33;20451;-83
2023/05/24 07:38:28;;;;;;;12.73;8.38;;;;;;;21.82;60.36;99546.59;4288355;33;20169;-83
2023/05/24 07:40:53;;;;;;;11.45;8.00;;;;;;;21.85;60.36;99543.69;4289602;33;20088;-83
2023/05/24 07:43:18;;;;;;;11.00;8.38;;;;;;;22.08;60.38;99540.03;4276347;33;20094;-83
2023/05/24 07:45:44;;;;;;;10.32;7.57;;;;;;;22.27;60.39;99540.19;4287995;33;20140;-84
2023/05/24 07:48:10;;;;;;;12.32;8.02;;;;;;;22.33;60.38;99538.81;4275865;33;20081;-83
2023/05/24 07:50:36;;;;;;;11.98;7.70;;;;;;;22.23;60.38;99548.50;4275961;33;20111;-84
2023/05/24 07:53:01;;;;;;;12.37;7.55;;;;;;;22.40;60.39;99544.44;4290335;33;20117;-83
2023/05/24 07:55:27;;;;;;;11.23;8.55;;;;;;;22.47;60.39;99541.13;4289986;33;20145;-84
2023/05/24 07:57:52;;;;;;;11.90;8.13;;;;;;;22.66;60.41;99554.53;4277990;33;20097;-83
2023/05/24 08:00:18;;;;;;;9.23;7.12;;;;;;;22.64;60.40;99547.66;4277986;33;20456;-84
2023/05/24 08:02:45;;;;;;;9.90;7.68;;;;;;;22.82;60.42;99546.13;4278212;33;20101;-83
2023/05/24 08:05:13;;;;;;;12.63;8.68;;;;;;;22.67;60.41;99547.41;4289958;33;20135;-84
2023/05/24 08:07:40;;;;;;;11.48;8.60;;;;;;;22.75;60.41;99555.56;4289972;33;20119;-83
2023/05/24 08:10:06;;;;;;;14.02;8.73;;;;;;;22.87;60.41;99549.22;4266103;33;20175;-83
2023/05/24 08:12:32;;;;;;;11.15;8.20;;;;;;;22.70;60.40;99546.31;4289942;33;20172;-83
2023/05/24 08:14:57;;;;;;;11.20;7.65;;;;;;;23.00;60.43;99550.84;4277350;33;33388;-84
2023/05/24 08:17:22;;;;;;;12.18;7.25;;;;;;;23.07;60.42;99559.94;4278076;33;20120;-84
2023/05/24 08:19:48;;;;;;;9.85;7.35;;;;;;;23.22;60.44;99556.81;4277529;33;24119;-84
2023/05/24 08:22:14;;;;;;;11.38;7.43;;;;;;;23.30;60.44;99550.81;4277102;33;20156;-82
2023/05/24 08:24:40;;;;;;;7.85;6.40;;;;;;;23.38;60.45;99553.63;4289618;33;20462;-84
2023/05/24 08:27:06;;;;;;;7.93;5.97;;;;;;;23.65;60.45;99560.16;4289458;33;20128;-82
2023/05/24 08:29:31;;;;;;;9.55;6.05;;;;;;;23.73;60.46;99555.00;4277728;33;20088;-83
2023/05/24 08:31:57;;;;;;;8.35;5.95;;;;;;;23.58;60.46;99566.03;4277507;33;20621;-82
2023/05/24 08:34:22;;;;;;;7.20;5.72;;;;;;;23.45;60.45;99573.38;4276578;33;37176;-83
2023/05/24 08:36:48;;;;;;;8.45;6.07;;;;;;;23.47;60.45;99568.78;4288594;33;37944;-82
2023/05/24 08:39:13;;;;;;;8.32;5.97;;;;;;;23.46;60.45;99574.22;4289762;33;20088;-84
2023/05/24 08:41:39;;;;;;;6.47;5.43;;;;;;;23.39;60.44;99573.06;4277058;33;20135;-82
2023/05/24 08:44:06;;;;;;;8.50;6.35;;;;;;;23.70;60.46;99573.91;4265551;33;20425;-83
2023/05/24 08:46:34;;;;;;;6.95;5.53;;;;;;;23.77;60.47;99575.03;4277641;33;20103;-83
2023/05/24 08:49:02;;;;;;;9.02;5.97;;;;;;;23.68;60.46;99579.34;4289471;33;20092;-83
2023/05/24 08:51:27;;;;;;;7.57;6.30;;;;;;;23.89;60.47;99581.87;4277523;33;20101;-84
2023/05/24 08:53:53;;;;;;;7.25;5.50;;;;;;;24.05;60.49;99581.34;4289642;33;20434;-85
2023/05/24 08:56:18;;;;;;;10.85;5.80;;;;;;;24.15;60.49;99580.38;4277636;33;20435;-84
2023/05/24 08:58:45;;;;;;;7.62;5.50;;;;;;;24.32;60.50;99583.34;4289587;33;20109;-83
2023/05/24 09:01:12;;;;;;;11.12;6.20;;;;;;;24.48;60.50;99580.97;4289629;33;20447;-82
2023/05/24 09:03:37;;;;;;;7.70;5.40;;;;;;;24.41;60.50;99590.50;4276458;33;20160;-84
2023/05/24 09:06:03;;;;;;;8.68;5.62;;;;;;;24.35;60.48;99583.06;4277406;33;20124;-82
2023/05/24 09:08:28;;;;;;;8.60;5.72;;;;;;;24.49;60.50;99587.97;4289354;33;20106;-83
2023/05/24 09:10:54;;;;;;;8.30;6.25;;;;;;;24.53;60.51;99589.34;4265087;33;20145;-84
2023/05/24 09:13:20;;;;;;;8.25;6.00;;;;;;;24.45;60.51;99591.88;4277646;33;20116;-83
2023/05/24 09:15:45;;;;;;;7.10;5.43;;;;;;;24.53;60.51;99585.84;4277451;33;20118;-83
2023/05/24 09:18:11;;;;;;;7.30;4.97;;;;;;;24.30;60.50;99595.94;4277185;33;20144;-83
2023/05/24 09:20:36;;;;;;;7.15;5.47;;;;;;;24.63;60.51;99590.19;4289358;33;20101;-84
2023/05/24 09:23:02;;;;;;;7.80;5.75;;;;;;;24.80;60.52;99596.59;4277126;33;20164;-83
2023/05/24 09:25:28;;;;;;;8.07;5.10;;;;;;;24.95;60.53;99592.50;4277499;33;20131;-83
2023/05/24 09:27:55;;;;;;;8.40;5.57;;;;;;;24.94;60.53;99595.31;4277519;33;20112;-83
2023/05/24 09:30:20;;;;;;;8.25;4.80;;;;;;;24.89;60.52;99597.56;4289239;33;20375;-84
2023/05/24 09:32:56;;;;;;;8.45;5.30;;;;;;;24.59;60.51;99595.91;4265362;33;20105;-84
2023/05/24 09:35:21;;;;;;;6.65;5.65;;;;;;;25.00;60.53;99594.75;4277546;33;20092;-84
2023/05/24 09:37:47;;;;;;;9.98;5.10;;;;;;;25.06;60.53;99584.34;4289327;33;20977;-84
2023/05/24 09:40:18;;;;;;;6.72;5.00;;;;;;;25.29;60.54;99595.47;4289874;33;35719;-84
2023/05/24 09:42:44;;;;;;;6.40;4.80;;;;;;;25.13;60.53;99589.94;4277482;33;20147;-83
2023/05/24 09:45:10;;;;;;;6.97;4.90;;;;;;;25.22;60.54;99590.88;4289365;33;20097;-83
2023/05/24 09:47:37;;;;;;;7.03;5.07;;;;;;;25.36;60.55;99588.59;4290154;33;20495;-83
2023/05/24 09:50:04;;;;;;;6.57;4.85;;;;;;;25.29;60.54;99591.97;4289122;33;20088;-83
2023/05/24 09:52:29;;;;;;;6.95;5.20;;;;;;;25.45;60.54;99591.34;4289479;33;20131;-83
2023/05/24 09:54:54;;;;;;;8.63;5.07;;;;;;;25.60;60.56;99590.72;4277145;33;20085;-83
2023/05/24 09:57:23;;;;;;;5.20;4.28;;;;;;;25.65;60.56;99593.78;4264516;33;26996;-81
2023/05/24 09:59:49;;;;;;;6.75;5.50;;;;;;;25.71;60.57;99592.34;4289197;33;20462;-83
2023/05/24 10:02:14;;;;;;;5.53;4.82;;;;;;;25.76;60.56;99584.75;4277153;33;20101;-83
2023/05/24 10:04:40;;;;;;;6.65;5.12;;;;;;;25.76;60.56;99587.41;4277294;33;20096;-83
2023/05/24 10:07:05;;;;;;;5.43;4.20;;;;;;;25.87;60.58;99586.38;4277066;33;20100;-81
2023/05/24 10:09:34;;;;;;;7.50;4.82;;;;;;;25.95;60.58;99589.13;4276889;33;20168;-83
2023/05/24 10:12:04;;;;;;;6.97;5.20;;;;;;;25.79;60.57;99586.28;4277627;33;20458;-82
2023/05/24 10:14:31;;;;;;;7.00;5.40;;;;;;;25.90;60.57;99602.91;4289394;33;20097;-83
2023/05/24 10:16:57;;;;;;;5.53;3.90;;;;;;;25.63;60.57;99603.75;4276764;33;20380;-83
2023/05/24 10:19:23;;;;;;;5.72;4.47;;;;;;;25.58;60.57;99586.53;4276767;33;20156;-82
2023/05/24 10:21:48;;;;;;;11.82;5.05;;;;;;;25.83;60.57;99591.19;4289220;33;20164;-83
2023/05/24 10:24:14;;;;;;;7.18;4.53;;;;;;;25.97;60.58;99589.81;4276493;33;20093;-82
2023/05/24 10:26:41;;;;;;;5.30;4.43;;;;;;;25.69;60.57;99594.34;4265119;33;20094;-82
2023/05/24 10:29:08;;;;;;;5.60;4.37;;;;;;;25.89;60.57;99598.56;4276567;33;20161;-83
2023/05/24 10:31:36;;;;;;;5.40;4.20;;;;;;;25.88;60.58;99588.91;4276396;33;21101;-83
2023/05/24 10:34:02;;;;;;;9.27;4.68;;;;;;;26.13;60.59;99591.81;4288702;33;20147;-82
2023/05/24 10:36:27;;;;;;;9.55;5.20;;;;;;;26.35;60.61;99585.19;4276799;33;20453;-83
2023/05/24 10:38:53;;;;;;;8.18;4.70;;;;;;;26.30;60.60;99580.28;4275612;33;37773;-81
2023/05/24 10:41:18;;;;;;;5.50;4.53;;;;;;;26.13;60.59;99584.63;4289059;33;20115;-82
2023/05/24 10:43:47;;;;;;;7.25;4.55;;;;;;;26.18;60.60;99578.84;4275036;33;31123;-82
2023/05/24 10:46:15;;;;;;;8.50;4.53;;;;;;;26.38;60.60;99582.22;4276729;33;20144;-82
2023/05/24 10:48:41;;;;;;;5.18;4.40;;;;;;;26.37;60.61;99568.03;4276498;33;20164;-82
2023/05/24 10:51:38;;;;;;;7.37;4.20;;;;;;;26.42;60.61;99575.56;4276445;33;20401;-81
2023/05/24 10:54:11;;;;;;;8.77;3.90;;;;;;;26.41;60.61;99566.72;4287593;33;20478;-81
2023/05/24 10:56:47;;;;;;;6.03;4.00;;;;;;;26.40;60.60;99582.91;4287954;33;20097;-83
2023/05/24 10:59:21;;;;;;;6.40;4.22;;;;;;;26.35;60.60;99575.38;4288375;33;20100;-84
2023/05/24 11:01:53;;;;;;;4.70;3.75;;;;;;;26.49;60.62;99584.63;4288715;33;20105;-82
2023/05/24 11:04:19;;;;;;;5.40;4.60;;;;;;;26.35;60.60;99571.84;4288563;33;20089;-83
2023/05/24 11:07:00;;;;;;;4.85;4.03;;;;;;;26.28;60.60;99567.09;4287709;33;20128;-82
2023/05/24 11:09:26;;;;;;;5.87;4.00;;;;;;;26.33;60.60;99577.31;4288548;33;20112;-83
2023/05/24 11:11:56;;;;;;;6.18;3.15;;;;;;;26.33;60.61;99571.12;4288566;33;20131;-83
2023/05/24 11:14:22;;;;;;;;;;;;;;;26.68;60.62;99576.44;4264897;33;20104;-84
2023/05/24 11:16:48;;;;;;;4.85;3.90;;;;;;;26.65;60.63;99570.56;4289803;33;20332;-82
2023/05/24 11:19:18;;;;;;;6.30;3.58;;;;;;;26.90;60.64;99575.09;4276644;33;20816;-82
2023/05/24 11:21:44;;;;;;;6.25;3.42;;;;;;;26.61;60.61;99570.91;4288293;33;20104;-81
2023/05/24 11:24:10;;;;;;;6.00;3.53;;;;;;;26.66;60.62;99567.75;4288479;33;20124;-82